PPR-pyyntö

Ennakkolupa on pakollinen lentoonlähtöjä ja laskuja varten. Pyydä ennakkolupa tästä.

Laskukierrosvaraus

Tee ensin PPR-pyyntö, sitten vasta laskukierrosvaraus. Hinta 5 € / 15 min.

Aerodrome Info

Updated 15 DEC 2017 23:20 LT

  • Some asphalt damage south of RWY 36 threshold.
  • Caution: Snowbanks on both sides of RWY. Snow, ice and water on TWYs and APRN. Removal is expected starting from 16 December morning.

Contact duty officer at +358 20 7545 129 for more information.

Weather


Helsinki Malmi lentokenttä
AWS ILHF 160100Z AUTO 16011KT 8000 -RA OVC006 02/01 Q0995=

METAR EFHK 160050Z 15011KT 4000 -SN BKN004 BKN006 01/00 Q0994 BECMG 9000=
TAF AMD EFHK 160020Z 1600/1700 14012KT 4000 -SNRA BKN006 BKN008 TEMPO 1600/1604 2500 -SN BKN004 TEMPO 1604/1606 6000 -RASN BECMG 1606/1608 2000 BR TEMPO 1608/1612 BKN004 BECMG 1612/1614 3000 BR SCT015 BECMG 1616/1618 9000=

Helsinki-Malmin lentoasema

Tervetuloa Helsinki-Malmin lentokentälle

Malmin lentokenttäyhdistys ry on yleishyödyllinen yhdistys, joka toimii Suomen vilkkaimman yleisilmailukentän, Helsinki-Malmin operaattorina. Yhdistyksen toiminnassa ovat mukana kentällä toimivat yhteisöt sekä suuri joukko yleisilmailijoita.

Malmin lentokentän toiminta rahoitetaan jäsen- ja kausikorttimaksuin. Ole mukana jatkamassa Malmin lentotoimintaa ja liity jäseneksi!